createdAt,value
2018-09-23T00:01:50.022Z,76.57
2018-09-23T00:04:18.521Z,77.06
2018-09-23T00:06:47.042Z,76.63
2018-09-23T00:09:15.440Z,76.70
2018-09-23T00:11:43.815Z,76.88
2018-09-23T00:14:12.205Z,77.64
2018-09-23T00:16:40.624Z,77.30
2018-09-23T00:19:09.016Z,77.74
2018-09-23T00:21:37.391Z,77.08
2018-09-23T00:24:05.791Z,77.34
2018-09-23T00:26:34.200Z,77.76
2018-09-23T00:29:02.597Z,77.91
2018-09-23T00:31:30.981Z,78.49
2018-09-23T00:33:59.393Z,77.71
2018-09-23T00:36:27.766Z,78.42
2018-09-23T00:38:56.182Z,78.74
2018-09-23T00:41:24.557Z,78.89
2018-09-23T00:43:52.950Z,78.85
2018-09-23T00:46:21.336Z,78.83
2018-09-23T00:48:49.740Z,78.93
2018-09-23T00:51:18.112Z,78.86
2018-09-23T00:53:46.517Z,78.32
2018-09-23T00:56:14.890Z,78.93
2018-09-23T00:58:43.294Z,78.72
2018-09-23T01:01:11.667Z,78.59
2018-09-23T01:03:40.091Z,78.56
2018-09-23T01:06:08.475Z,79.19
2018-09-23T01:08:36.870Z,79.49
2018-09-23T01:11:05.234Z,79.06
2018-09-23T01:13:33.631Z,80.00
2018-09-23T01:16:02.002Z,79.53
2018-09-23T01:18:30.406Z,79.35
2018-09-23T01:20:58.782Z,79.46
2018-09-23T01:23:27.167Z,79.77
2018-09-23T01:25:55.670Z,79.54
2018-09-23T01:28:24.066Z,79.91
2018-09-23T01:30:52.442Z,80.62
2018-09-23T01:33:20.849Z,80.38
2018-09-23T01:35:49.278Z,80.73
2018-09-23T01:38:17.676Z,80.14
2018-09-23T01:40:46.139Z,80.72
2018-09-23T01:43:14.529Z,80.71
2018-09-23T01:45:42.902Z,80.90
2018-09-23T01:48:11.316Z,80.56
2018-09-23T01:50:39.694Z,80.65
2018-09-23T01:53:08.069Z,81.08
2018-09-23T01:55:36.466Z,81.30
2018-09-23T01:58:04.842Z,81.49
2018-09-23T02:00:33.278Z,80.72
2018-09-23T02:03:01.659Z,81.97
2018-09-23T02:05:30.074Z,81.74
2018-09-23T02:07:58.446Z,81.14
2018-09-23T02:10:26.842Z,81.29
2018-09-23T02:12:55.217Z,81.23
2018-09-23T02:15:23.606Z,81.89
2018-09-23T02:17:51.979Z,82.05
2018-09-23T02:20:20.370Z,81.35
2018-09-23T02:22:48.754Z,82.19
2018-09-23T02:25:17.162Z,81.56
2018-09-23T02:27:45.562Z,81.89
2018-09-23T02:30:13.959Z,81.97
2018-09-23T02:32:42.327Z,82.45
2018-09-23T02:35:10.719Z,82.12
2018-09-23T02:37:39.084Z,82.47
2018-09-23T02:40:07.606Z,82.79
2018-09-23T02:42:35.982Z,82.34
2018-09-23T02:45:04.397Z,82.94
2018-09-23T02:47:32.762Z,82.49
2018-09-23T02:50:01.159Z,82.87
2018-09-23T02:52:29.529Z,82.84
2018-09-23T02:54:57.922Z,82.80
2018-09-23T02:57:26.290Z,83.09
2018-09-23T02:59:54.702Z,82.73
2018-09-23T03:02:23.078Z,82.62
2018-09-23T03:04:51.476Z,82.40
2018-09-23T03:07:19.853Z,82.35
2018-09-23T03:09:48.247Z,82.81
2018-09-23T03:12:16.610Z,82.53
2018-09-23T03:14:44.994Z,83.25
2018-09-23T03:17:13.353Z,83.00
2018-09-23T03:19:42.270Z,82.78
2018-09-23T03:22:10.638Z,83.28
2018-09-23T03:24:39.037Z,83.13
2018-09-23T03:27:07.422Z,83.39
2018-09-23T03:29:35.813Z,83.34
2018-09-23T03:32:04.192Z,83.47
2018-09-23T03:34:32.595Z,83.11
2018-09-23T03:37:00.959Z,83.50
2018-09-23T03:39:29.345Z,83.33
2018-09-23T03:41:57.710Z,82.87
2018-09-23T03:44:26.106Z,82.92
2018-09-23T03:46:54.481Z,82.73
2018-09-23T03:49:22.878Z,83.45
2018-09-23T03:51:51.257Z,82.88
2018-09-23T03:54:19.668Z,83.72
2018-09-23T03:56:48.062Z,83.24
2018-09-23T03:59:16.426Z,83.22
2018-09-23T04:01:44.814Z,83.46
2018-09-23T04:04:13.179Z,84.08
2018-09-23T04:06:41.576Z,83.77
2018-09-23T04:09:09.943Z,84.09
2018-09-23T04:11:38.379Z,84.12
2018-09-23T04:14:06.908Z,83.91
2018-09-23T04:16:35.528Z,83.78
2018-09-23T04:19:03.898Z,83.69
2018-09-23T04:21:32.358Z,84.39
2018-09-23T04:24:00.754Z,84.35
2018-09-23T04:26:29.165Z,83.70
2018-09-23T04:28:57.530Z,84.39
2018-09-23T04:31:26.008Z,84.04
2018-09-23T04:33:54.378Z,83.98
2018-09-23T04:36:22.770Z,84.59
2018-09-23T04:38:51.145Z,84.44
2018-09-23T04:41:19.583Z,84.12
2018-09-23T04:43:47.958Z,84.25
2018-09-23T04:46:16.350Z,84.99
2018-09-23T04:48:44.717Z,84.83
2018-09-23T04:51:13.106Z,84.25
2018-09-23T04:53:41.481Z,84.20
2018-09-23T04:56:09.870Z,84.68
2018-09-23T04:58:38.230Z,84.57
2018-09-23T05:01:06.630Z,84.78
2018-09-23T05:03:35.026Z,85.11
2018-09-23T05:06:03.417Z,84.60
2018-09-23T05:08:31.782Z,85.04
2018-09-23T05:11:00.174Z,85.08
2018-09-23T05:13:28.554Z,84.96
2018-09-23T05:15:56.946Z,84.96
2018-09-23T05:18:25.322Z,84.56
2018-09-23T05:20:53.717Z,85.23
2018-09-23T05:23:22.083Z,85.02
2018-09-23T05:25:50.503Z,85.10
2018-09-23T05:28:19.109Z,84.51
2018-09-23T05:30:47.508Z,85.27
2018-09-23T05:33:15.874Z,84.96
2018-09-23T05:35:44.266Z,84.81
2018-09-23T05:38:12.657Z,85.03
2018-09-23T05:40:41.078Z,84.50
2018-09-23T05:43:09.455Z,85.09
2018-09-23T05:45:37.837Z,84.83
2018-09-23T05:48:06.233Z,85.24
2018-09-23T05:50:34.606Z,85.17
2018-09-23T05:53:03.005Z,84.41
2018-09-23T05:55:31.376Z,85.10
2018-09-23T05:57:59.771Z,84.21
2018-09-23T06:00:30.610Z,84.10
2018-09-23T06:02:59.056Z,84.45
2018-09-23T06:05:27.405Z,84.20
2018-09-23T06:07:55.793Z,83.17
2018-09-23T06:10:24.164Z,83.26
2018-09-23T06:12:52.562Z,82.70
2018-09-23T06:15:20.930Z,83.41
2018-09-23T06:17:49.322Z,83.18
2018-09-23T06:20:17.695Z,82.91
2018-09-23T06:22:46.086Z,82.26
2018-09-23T06:25:14.487Z,82.82
2018-09-23T06:27:42.905Z,82.82
2018-09-23T06:30:11.277Z,82.17
2018-09-23T06:32:39.678Z,82.26
2018-09-23T06:35:08.073Z,82.13
2018-09-23T06:37:36.466Z,81.34
2018-09-23T06:40:05.353Z,81.89
2018-09-23T06:42:33.755Z,81.07
2018-09-23T06:45:02.131Z,80.73
2018-09-23T06:47:30.546Z,80.83
2018-09-23T06:49:58.934Z,80.14
2018-09-23T06:52:27.333Z,80.10
2018-09-23T06:54:55.706Z,79.49
2018-09-23T06:57:24.124Z,79.20
2018-09-23T06:59:53.265Z,78.44
2018-09-23T07:02:21.656Z,78.75
2018-09-23T07:04:50.051Z,78.17
2018-09-23T07:07:18.498Z,78.66
2018-09-23T07:09:47.261Z,77.81
2018-09-23T07:12:15.742Z,77.65
2018-09-23T07:14:44.118Z,77.26
2018-09-23T07:17:12.519Z,77.04
2018-09-23T07:19:40.895Z,77.42
2018-09-23T07:22:09.294Z,77.00
2018-09-23T07:24:37.751Z,76.95
2018-09-23T07:27:06.166Z,76.31
2018-09-23T07:29:34.541Z,75.42
2018-09-23T07:32:02.982Z,75.28
2018-09-23T07:34:31.358Z,75.81
2018-09-23T07:36:59.842Z,74.67
2018-09-23T07:39:28.150Z,74.26
2018-09-23T07:41:56.554Z,74.47
2018-09-23T07:44:24.926Z,74.15
2018-09-23T07:46:53.337Z,74.46
2018-09-23T07:49:21.709Z,73.50
2018-09-23T07:51:50.082Z,73.38
2018-09-23T07:54:18.491Z,72.70
2018-09-23T07:56:46.877Z,73.24
2018-09-23T07:59:15.273Z,72.43
2018-09-23T08:01:43.663Z,72.45
2018-09-23T08:04:12.266Z,71.70
2018-09-23T08:06:40.642Z,71.14
2018-09-23T08:09:10.054Z,71.62
2018-09-23T08:11:39.022Z,71.07
2018-09-23T08:14:08.070Z,71.61
2018-09-23T08:16:36.146Z,71.56
2018-09-23T08:19:04.544Z,71.50
2018-09-23T08:21:32.937Z,69.66
2018-09-23T08:24:01.338Z,70.26
2018-09-23T08:26:29.758Z,70.14
2018-09-23T08:28:58.150Z,70.01
2018-09-23T08:31:26.526Z,69.49
2018-09-23T08:33:54.922Z,69.15
2018-09-23T08:36:23.297Z,69.20
2018-09-23T08:38:51.722Z,69.74
2018-09-23T08:41:20.098Z,68.98
2018-09-23T08:43:48.493Z,68.18
2018-09-23T08:46:16.882Z,69.09
2018-09-23T08:48:45.305Z,68.64
2018-09-23T08:51:15.438Z,68.73
2018-09-23T08:53:43.831Z,68.44
2018-09-23T08:56:12.300Z,67.46
2018-09-23T08:58:40.706Z,67.80
2018-09-23T09:01:09.076Z,67.37
2018-09-23T09:03:37.485Z,66.92
2018-09-23T09:06:05.879Z,66.55
2018-09-23T09:08:34.274Z,66.18
2018-09-23T09:11:02.657Z,65.82
2018-09-23T09:13:31.054Z,64.26
2018-09-23T09:15:59.426Z,65.37
2018-09-23T09:18:27.918Z,63.99
2018-09-23T09:20:56.226Z,64.17
2018-09-23T09:23:24.618Z,63.84
2018-09-23T09:25:53.014Z,62.90
2018-09-23T09:28:21.406Z,63.61
2018-09-23T09:30:49.777Z,63.45
2018-09-23T09:33:18.170Z,62.94
2018-09-23T09:35:46.638Z,62.29
2018-09-23T09:38:15.031Z,61.91
2018-09-23T09:40:43.423Z,62.52
2018-09-23T09:43:11.819Z,61.76
2018-09-23T09:45:40.192Z,61.03
2018-09-23T09:48:08.598Z,60.88
2018-09-23T09:50:36.978Z,60.88
2018-09-23T09:53:05.360Z,60.43
2018-09-23T09:55:33.775Z,60.14
2018-09-23T09:58:02.155Z,59.49
2018-09-23T10:00:34.297Z,59.85
2018-09-23T10:03:03.578Z,60.33
2018-09-23T10:05:31.982Z,60.25
2018-09-23T10:08:00.426Z,59.13
2018-09-23T10:10:28.846Z,59.34
2018-09-23T10:12:57.222Z,58.40
2018-09-23T10:15:25.641Z,58.12
2018-09-23T10:17:54.013Z,58.30
2018-09-23T10:20:22.410Z,57.36
2018-09-23T10:22:50.803Z,57.22
2018-09-23T10:25:19.246Z,57.26
2018-09-23T10:27:47.623Z,56.86
2018-09-23T10:30:16.019Z,56.41
2018-09-23T10:32:44.395Z,55.47
2018-09-23T10:35:12.800Z,55.47
2018-09-23T10:37:41.175Z,54.42
2018-09-23T10:40:09.570Z,54.97
2018-09-23T10:42:37.954Z,54.26
2018-09-23T10:45:06.528Z,53.73
2018-09-23T10:47:34.911Z,53.49
2018-09-23T10:50:03.306Z,53.66
2018-09-23T10:52:31.685Z,54.16
2018-09-23T10:55:00.091Z,53.83
2018-09-23T10:57:28.462Z,53.79
2018-09-23T10:59:56.858Z,53.77
2018-09-23T11:02:25.221Z,52.84
2018-09-23T11:04:53.614Z,53.02
2018-09-23T11:07:22.041Z,51.98
2018-09-23T11:09:50.638Z,52.04
2018-09-23T11:12:19.124Z,52.17
2018-09-23T11:14:47.526Z,52.26
2018-09-23T11:17:15.917Z,51.76
2018-09-23T11:19:44.318Z,51.35
2018-09-23T11:22:12.733Z,51.08
2018-09-23T11:24:41.134Z,51.50
2018-09-23T11:27:09.534Z,51.43
2018-09-23T11:29:37.931Z,50.92
2018-09-23T11:32:06.526Z,50.87
2018-09-23T11:34:34.937Z,51.19
2018-09-23T11:37:03.301Z,51.36
2018-09-23T11:39:31.718Z,51.25
2018-09-23T11:42:00.190Z,51.19
2018-09-23T11:44:28.561Z,51.72
2018-09-23T11:46:56.969Z,51.48
2018-09-23T11:49:25.342Z,50.92
2018-09-23T11:51:53.733Z,50.99
2018-09-23T11:54:22.106Z,52.03
2018-09-23T11:56:50.502Z,52.00
2018-09-23T11:59:18.897Z,51.72
2018-09-23T12:01:47.286Z,52.25
2018-09-23T12:04:15.666Z,52.29
2018-09-23T12:06:44.062Z,52.73
2018-09-23T12:09:13.603Z,52.18
2018-09-23T12:11:41.999Z,51.36
2018-09-23T12:14:10.866Z,52.02
2018-09-23T12:16:39.262Z,52.33
2018-09-23T12:19:07.630Z,52.53
2018-09-23T12:21:36.030Z,52.86
2018-09-23T12:24:04.406Z,52.18
2018-09-23T12:26:32.829Z,52.57
2018-09-23T12:29:01.236Z,53.44
2018-09-23T12:31:29.645Z,53.44
2018-09-23T12:33:58.022Z,53.00
2018-09-23T12:36:26.429Z,54.31
2018-09-23T12:38:54.805Z,55.22
2018-09-23T12:41:23.206Z,55.64
2018-09-23T12:43:51.599Z,55.44
2018-09-23T12:46:20.007Z,55.98
2018-09-23T12:48:48.382Z,55.02
2018-09-23T12:51:16.778Z,56.13
2018-09-23T12:53:45.158Z,55.96
2018-09-23T12:56:13.660Z,55.53
2018-09-23T12:58:42.041Z,55.72
2018-09-23T13:01:10.429Z,54.83
2018-09-23T13:03:38.803Z,55.62
2018-09-23T13:06:07.210Z,55.62
2018-09-23T13:08:35.592Z,55.68
2018-09-23T13:11:03.993Z,55.51
2018-09-23T13:13:32.362Z,55.18
2018-09-23T13:16:00.768Z,56.20
2018-09-23T13:18:29.141Z,55.54
2018-09-23T13:20:57.546Z,55.11
2018-09-23T13:23:25.914Z,55.70
2018-09-23T13:25:54.378Z,56.21
2018-09-23T13:28:22.758Z,55.84
2018-09-23T13:30:51.170Z,55.87
2018-09-23T13:33:19.569Z,55.74
2018-09-23T13:35:47.943Z,56.49
2018-09-23T13:38:16.516Z,56.87
2018-09-23T13:40:44.898Z,56.58
2018-09-23T13:43:13.289Z,56.25
2018-09-23T13:45:41.661Z,56.74
2018-09-23T13:48:10.049Z,56.09
2018-09-23T13:50:38.425Z,56.23
2018-09-23T13:53:06.823Z,55.87
2018-09-23T13:55:35.204Z,55.91
2018-09-23T13:58:03.598Z,56.04
2018-09-23T14:00:31.975Z,56.31
2018-09-23T14:03:00.370Z,56.68
2018-09-23T14:05:28.744Z,57.01
2018-09-23T14:07:57.146Z,57.06
2018-09-23T14:10:25.534Z,56.57
2018-09-23T14:12:53.934Z,56.41
2018-09-23T14:15:22.314Z,56.55
2018-09-23T14:17:50.707Z,57.05
2018-09-23T14:20:19.082Z,56.62
2018-09-23T14:22:47.482Z,56.41
2018-09-23T14:25:15.875Z,56.44
2018-09-23T14:27:44.274Z,56.86
2018-09-23T14:30:12.651Z,57.05
2018-09-23T14:32:41.055Z,56.69
2018-09-23T14:35:09.439Z,57.47
2018-09-23T14:37:37.870Z,58.00
2018-09-23T14:40:06.242Z,58.43
2018-09-23T14:42:34.686Z,58.30
2018-09-23T14:45:03.041Z,58.47
2018-09-23T14:47:31.447Z,58.56
2018-09-23T14:49:59.826Z,59.41
2018-09-23T14:52:28.297Z,58.56
2018-09-23T14:54:56.792Z,58.73
2018-09-23T14:57:25.098Z,59.03
2018-09-23T14:59:54.367Z,59.29
2018-09-23T15:02:21.898Z,59.70
2018-09-23T15:04:50.265Z,59.14
2018-09-23T15:07:18.661Z,59.52
2018-09-23T15:09:47.032Z,59.60
2018-09-23T15:12:15.458Z,59.37
2018-09-23T15:14:43.834Z,59.62
2018-09-23T15:17:12.246Z,60.02
2018-09-23T15:19:40.614Z,59.67
2018-09-23T15:22:09.445Z,59.15
2018-09-23T15:24:37.842Z,59.26
2018-09-23T15:27:06.538Z,59.91
2018-09-23T15:29:34.940Z,60.06
2018-09-23T15:32:03.317Z,59.42
2018-09-23T15:34:31.714Z,59.75
2018-09-23T15:37:00.082Z,60.39
2018-09-23T15:39:28.481Z,60.82
2018-09-23T15:41:56.863Z,60.96
2018-09-23T15:44:25.265Z,60.68
2018-09-23T15:46:53.650Z,60.56
2018-09-23T15:49:22.050Z,61.16
2018-09-23T15:51:50.442Z,60.92
2018-09-23T15:54:18.841Z,61.75
2018-09-23T15:56:47.259Z,61.83
2018-09-23T15:59:15.660Z,62.17
2018-09-23T16:01:44.034Z,61.86
2018-09-23T16:04:12.443Z,62.44
2018-09-23T16:06:40.814Z,62.66
2018-09-23T16:09:09.806Z,63.17
2018-09-23T16:11:38.682Z,62.69
2018-09-23T16:14:07.299Z,63.59
2018-09-23T16:16:35.678Z,63.50
2018-09-23T16:19:04.147Z,63.56
2018-09-23T16:21:34.374Z,62.59
2018-09-23T16:24:02.981Z,63.11
2018-09-23T16:26:31.818Z,63.80
2018-09-23T16:29:00.425Z,63.76
2018-09-23T16:31:28.824Z,64.04
2018-09-23T16:33:57.230Z,64.13
2018-09-23T16:36:25.750Z,64.25
2018-09-23T16:38:54.316Z,64.07
2018-09-23T16:41:22.750Z,63.77
2018-09-23T16:43:51.218Z,63.55
2018-09-23T16:46:19.617Z,64.44
2018-09-23T16:48:48.202Z,64.05
2018-09-23T16:51:16.598Z,64.57
2018-09-23T16:53:45.002Z,65.26
2018-09-23T16:56:13.446Z,65.33
2018-09-23T16:58:41.860Z,65.03
2018-09-23T17:01:10.244Z,65.81
2018-09-23T17:03:38.650Z,65.64
2018-09-23T17:06:07.033Z,66.04
2018-09-23T17:08:35.458Z,65.43
2018-09-23T17:11:03.837Z,66.40
2018-09-23T17:13:32.218Z,65.85
2018-09-23T17:16:00.713Z,66.38
2018-09-23T17:18:29.137Z,66.44
2018-09-23T17:20:57.543Z,66.29
2018-09-23T17:23:25.921Z,66.91
2018-09-23T17:25:54.346Z,67.24
2018-09-23T17:28:22.741Z,67.36
2018-09-23T17:30:51.351Z,67.96
2018-09-23T17:33:19.726Z,67.46
2018-09-23T17:35:48.118Z,67.81
2018-09-23T17:38:16.506Z,67.88
2018-09-23T17:40:44.965Z,66.93
2018-09-23T17:43:13.319Z,67.69
2018-09-23T17:45:41.730Z,66.86
2018-09-23T17:48:10.107Z,66.96
2018-09-23T17:50:38.511Z,67.76
2018-09-23T17:53:06.951Z,67.33
2018-09-23T17:55:35.379Z,67.27
2018-09-23T17:58:03.775Z,67.71
2018-09-23T18:00:32.182Z,67.88
2018-09-23T18:03:00.559Z,67.15
2018-09-23T18:05:30.526Z,67.96
2018-09-23T18:07:58.989Z,67.29
2018-09-23T18:10:27.366Z,67.83
2018-09-23T18:12:55.755Z,67.20
2018-09-23T18:15:24.149Z,67.85
2018-09-23T18:17:52.528Z,67.26
2018-09-23T18:20:20.921Z,67.92
2018-09-23T18:22:49.302Z,68.08
2018-09-23T18:25:17.718Z,67.69
2018-09-23T18:27:46.091Z,68.00
2018-09-23T18:30:14.481Z,68.35
2018-09-23T18:32:43.171Z,68.84
2018-09-23T18:35:11.605Z,69.11
2018-09-23T18:37:40.004Z,69.08
2018-09-23T18:40:08.530Z,68.67
2018-09-23T18:42:36.923Z,68.45
2018-09-23T18:45:05.462Z,68.67
2018-09-23T18:47:33.836Z,69.12
2018-09-23T18:50:02.507Z,68.67
2018-09-23T18:52:30.873Z,69.05
2018-09-23T18:55:04.612Z,69.19
2018-09-23T18:57:32.990Z,69.18
2018-09-23T19:00:01.406Z,68.91
2018-09-23T19:02:29.797Z,69.23
2018-09-23T19:04:58.250Z,69.11
2018-09-23T19:07:26.642Z,68.57
2018-09-23T19:09:55.009Z,68.03
2018-09-23T19:12:23.402Z,67.82
2018-09-23T19:14:51.777Z,67.02
2018-09-23T19:17:20.167Z,66.42
2018-09-23T19:19:54.010Z,65.80
2018-09-23T19:22:27.739Z,65.92
2018-09-23T19:24:56.154Z,65.05
2018-09-23T19:27:24.738Z,64.82
2018-09-23T19:29:53.138Z,64.93
2018-09-23T19:32:21.555Z,65.66
2018-09-23T19:34:49.934Z,65.66
2018-09-23T19:37:18.334Z,66.40
2018-09-23T19:39:46.907Z,66.48
2018-09-23T19:42:15.311Z,66.26
2018-09-23T19:44:43.682Z,66.41
2018-09-23T19:47:12.070Z,66.42
2018-09-23T19:49:40.442Z,66.92
2018-09-23T19:52:08.838Z,66.83
2018-09-23T19:54:37.214Z,67.53
2018-09-23T19:57:05.634Z,67.50
2018-09-23T19:59:34.007Z,67.03
2018-09-23T20:02:02.469Z,67.83
2018-09-23T20:04:30.840Z,67.07
2018-09-23T20:06:59.300Z,67.18
2018-09-23T20:09:27.649Z,67.58
2018-09-23T20:11:56.050Z,67.42
2018-09-23T20:14:24.447Z,67.79
2018-09-23T20:16:52.847Z,68.69
2018-09-23T20:19:21.218Z,68.19
2018-09-23T20:21:49.610Z,68.67
2018-09-23T20:24:17.994Z,69.46
2018-09-23T20:26:46.410Z,69.70
2018-09-23T20:29:14.785Z,70.29
2018-09-23T20:31:43.190Z,70.69
2018-09-23T20:34:11.565Z,70.87
2018-09-23T20:36:39.989Z,71.15
2018-09-23T20:39:09.458Z,71.71
2018-09-23T20:41:37.859Z,71.75
2018-09-23T20:44:06.250Z,72.67
2018-09-23T20:46:34.653Z,72.17
2018-09-23T20:49:03.026Z,72.09
2018-09-23T20:51:31.418Z,72.04
2018-09-23T20:53:59.787Z,72.81
2018-09-23T20:56:28.178Z,72.38
2018-09-23T20:58:56.542Z,72.70
2018-09-23T21:01:24.919Z,72.54
2018-09-23T21:03:53.315Z,72.49
2018-09-23T21:06:21.681Z,72.33
2018-09-23T21:08:50.078Z,72.49
2018-09-23T21:11:18.450Z,72.14
2018-09-23T21:13:46.846Z,71.45
2018-09-23T21:16:15.223Z,71.71
2018-09-23T21:18:43.622Z,72.03
2018-09-23T21:21:11.992Z,71.85
2018-09-23T21:23:40.390Z,71.92
2018-09-23T21:26:08.799Z,72.42
2018-09-23T21:28:37.190Z,72.14
2018-09-23T21:31:05.829Z,71.44
2018-09-23T21:33:34.214Z,72.15
2018-09-23T21:36:02.590Z,72.16
2018-09-23T21:38:31.043Z,72.72
2018-09-23T21:40:59.422Z,72.25
2018-09-23T21:43:27.814Z,73.11
2018-09-23T21:45:56.187Z,72.89
2018-09-23T21:48:24.586Z,73.64
2018-09-23T21:50:52.951Z,73.41
2018-09-23T21:53:21.350Z,73.47
2018-09-23T21:55:49.714Z,74.27
2018-09-23T21:58:18.118Z,74.17
2018-09-23T22:00:46.486Z,73.93
2018-09-23T22:03:15.316Z,74.31
2018-09-23T22:05:43.693Z,74.81
2018-09-23T22:08:12.677Z,74.16
2018-09-23T22:10:41.040Z,74.40
2018-09-23T22:13:09.437Z,74.36
2018-09-23T22:15:37.822Z,74.61
2018-09-23T22:18:06.217Z,75.28
2018-09-23T22:20:34.590Z,75.12
2018-09-23T22:23:02.982Z,75.83
2018-09-23T22:25:31.398Z,75.81
2018-09-23T22:27:59.791Z,75.97
2018-09-23T22:30:28.160Z,76.03
2018-09-23T22:32:56.545Z,75.77
2018-09-23T22:35:24.906Z,76.29
2018-09-23T22:37:53.365Z,76.55
2018-09-23T22:40:21.742Z,76.67
2018-09-23T22:42:50.154Z,76.76
2018-09-23T22:45:18.526Z,76.69
2018-09-23T22:47:46.950Z,76.87
2018-09-23T22:50:15.313Z,76.88
2018-09-23T22:52:43.680Z,77.07
2018-09-23T22:55:12.081Z,77.20
2018-09-23T22:57:40.453Z,77.53
2018-09-23T23:00:08.850Z,77.71
2018-09-23T23:02:37.225Z,77.18
2018-09-23T23:05:05.629Z,77.14
2018-09-23T23:07:33.997Z,77.54
2018-09-23T23:10:02.390Z,77.12
2018-09-23T23:12:30.770Z,78.01
2018-09-23T23:14:59.167Z,77.35
2018-09-23T23:17:27.530Z,78.05
2018-09-23T23:19:55.929Z,77.82
2018-09-23T23:22:24.305Z,78.01
2018-09-23T23:24:52.694Z,78.03
2018-09-23T23:27:21.120Z,77.92
2018-09-23T23:29:49.493Z,78.02
2018-09-23T23:32:17.858Z,78.38
2018-09-23T23:34:46.247Z,77.90
2018-09-23T23:37:14.606Z,78.51
2018-09-23T23:39:43.000Z,78.58
2018-09-23T23:42:11.368Z,78.72
2018-09-23T23:44:39.758Z,78.93
2018-09-23T23:47:08.331Z,78.48
2018-09-23T23:49:36.754Z,78.86
2018-09-23T23:52:05.146Z,79.14
2018-09-23T23:54:33.544Z,78.77
2018-09-23T23:57:01.914Z,79.29
2018-09-23T23:59:30.313Z,79.51
